Time;durP1;ratioP1;P1;durP2;ratioP2;P2;SDS_P1;SDS_P2;PMS_P1;PMS_P2;Temp;Humidity;BMP_temperature;BMP_pressure;BME280_temperature;BME280_humidity;BME280_pressure;Samples;Min_cycle;Max_cycle;Signal;HPM_P1;HPM_P2
2022/05/15 00:01:32;;;;;;;8.80;7.30;;;;;;;14.57;71.34;98933.06;5003479;28;103561;-57
2022/05/15 00:04:03;;;;;;;6.70;6.10;;;;;;;14.88;70.31;98938.28;5021996;27;102669;-57
2022/05/15 00:06:33;;;;;;;5.70;5.20;;;;;;;15.19;68.33;98930.28;5020115;28;102935;-57
2022/05/15 00:09:01;;;;;;;6.97;6.27;;;;;;;14.83;69.62;98934.31;5021131;27;103371;-56
2022/05/15 00:11:30;;;;;;;6.60;6.00;;;;;;;14.76;70.27;98934.03;5018725;28;103333;-56
2022/05/15 00:13:58;;;;;;;6.77;6.17;;;;;;;14.90;70.34;98924.84;5021984;28;102809;-57
2022/05/15 00:16:26;;;;;;;8.63;7.65;;;;;;;13.75;74.68;98932.75;5021592;28;102698;-57
2022/05/15 00:18:56;;;;;;;7.43;6.72;;;;;;;13.70;76.14;98926.13;5019149;28;103236;-60
2022/05/15 00:21:24;;;;;;;7.03;6.33;;;;;;;14.03;73.37;98923.41;5020473;28;103045;-57
2022/05/15 00:23:52;;;;;;;6.28;5.68;;;;;;;14.14;72.45;98920.69;5019980;28;103164;-57
2022/05/15 00:26:20;;;;;;;5.97;5.40;;;;;;;14.50;70.38;98922.09;5020667;28;102765;-57
2022/05/15 00:28:50;;;;;;;7.30;5.90;;;;;;;13.85;73.03;98920.44;5021073;27;104058;-57
2022/05/15 00:31:19;;;;;;;5.80;5.20;;;;;;;14.14;72.47;98926.00;5019893;27;103234;-57
2022/05/15 00:33:47;;;;;;;5.27;4.70;;;;;;;14.13;71.30;98926.13;5020878;27;103027;-57
2022/05/15 00:36:17;;;;;;;6.00;4.97;;;;;;;14.23;71.67;98927.88;5008743;28;103191;-57
2022/05/15 00:38:47;;;;;;;5.60;4.80;;;;;;;14.04;72.77;98925.06;5020794;27;104013;-57
2022/05/15 00:41:16;;;;;;;6.22;5.30;;;;;;;14.11;70.99;98930.72;5020353;27;103233;-57
2022/05/15 00:43:46;;;;;;;5.30;4.80;;;;;;;14.15;71.76;98922.34;5019405;27;102591;-57
2022/05/15 00:46:19;;;;;;;5.40;4.90;;;;;;;14.26;71.13;98922.31;5021506;27;102973;-57
2022/05/15 00:48:50;;;;;;;4.55;4.15;;;;;;;14.41;70.56;98918.41;5014991;28;104382;-57
2022/05/15 00:51:24;;;;;;;5.95;5.10;;;;;;;14.09;71.11;98922.84;5019461;27;103338;-57
2022/05/15 00:53:55;;;;;;;5.73;5.17;;;;;;;13.93;71.59;98911.81;5022309;28;103042;-59
2022/05/15 00:56:27;;;;;;;4.90;4.50;;;;;;;13.90;72.43;98917.38;5012482;28;103737;-60
2022/05/15 00:59:00;;;;;;;4.87;4.13;;;;;;;14.02;71.23;98913.72;5012499;28;103325;-60
2022/05/15 01:01:28;;;;;;;4.25;3.70;;;;;;;14.30;70.38;98909.59;5001413;28;104684;-60
2022/05/15 01:04:00;;;;;;;5.07;4.28;;;;;;;13.98;71.13;98909.63;5023236;27;103018;-60
2022/05/15 01:06:30;;;;;;;5.63;4.70;;;;;;;13.54;72.40;98905.31;5007749;28;102633;-60
2022/05/15 01:09:01;;;;;;;4.37;3.57;;;;;;;13.74;71.90;98909.00;5013182;28;104320;-60
2022/05/15 01:11:34;;;;;;;3.80;3.50;;;;;;;14.03;70.61;98907.47;5006028;28;103536;-60
2022/05/15 01:14:05;;;;;;;4.38;3.70;;;;;;;14.02;70.11;98905.75;5018907;28;102687;-60
2022/05/15 01:16:34;;;;;;;4.43;3.92;;;;;;;13.82;71.65;98899.44;5012136;28;103157;-60
2022/05/15 01:19:03;;;;;;;5.25;3.90;;;;;;;13.62;71.96;98904.69;5007910;28;103203;-60
2022/05/15 01:21:35;;;;;;;4.15;3.55;;;;;;;14.03;70.46;98896.84;5005545;28;103203;-59
2022/05/15 01:24:06;;;;;;;3.75;2.92;;;;;;;14.10;69.92;98911.28;5001806;28;102734;-60
2022/05/15 01:26:39;;;;;;;3.10;2.85;;;;;;;14.22;69.23;98912.06;5021084;28;103000;-59
2022/05/15 01:29:10;;;;;;;3.40;3.10;;;;;;;14.25;69.70;98902.03;5004632;28;103379;-60
2022/05/15 01:31:38;;;;;;;5.87;5.27;;;;;;;14.04;71.70;98902.97;5020400;28;103586;-59
2022/05/15 01:34:08;;;;;;;6.60;5.78;;;;;;;13.65;73.23;98896.47;5020566;27;102538;-59
2022/05/15 01:36:40;;;;;;;6.28;5.68;;;;;;;13.64;73.95;98897.47;5010419;28;104053;-59
2022/05/15 01:39:08;;;;;;;6.15;5.00;;;;;;;13.71;73.50;98906.59;5010523;28;104124;-60
2022/05/15 01:41:36;;;;;;;5.93;5.32;;;;;;;12.85;76.34;98902.94;5012151;28;103251;-59
2022/05/15 01:44:05;;;;;;;6.50;4.90;;;;;;;12.01;79.73;98904.06;5020268;28;102664;-60
2022/05/15 01:46:34;;;;;;;5.90;4.65;;;;;;;12.26;78.91;98907.56;5019356;28;102640;-60
2022/05/15 01:49:09;;;;;;;5.40;4.33;;;;;;;12.38;78.97;98901.31;5018088;27;103002;-60
2022/05/15 01:51:42;;;;;;;6.65;5.03;;;;;;;12.68;76.31;98909.56;5014610;28;103767;-60
2022/05/15 01:54:11;;;;;;;2.95;2.75;;;;;;;13.37;73.75;98908.47;5010875;27;104575;-59
2022/05/15 01:56:40;;;;;;;4.95;4.38;;;;;;;13.06;74.50;98903.91;5008434;27;104011;-59
2022/05/15 01:59:09;;;;;;;4.87;4.37;;;;;;;12.75;77.13;98900.16;5016899;28;104037;-59
2022/05/15 02:01:39;;;;;;;5.20;4.60;;;;;;;12.59;78.01;98910.25;5001996;28;103483;-59
2022/05/15 02:04:08;;;;;;;5.00;4.50;;;;;;;12.56;77.69;98899.91;5003261;28;103041;-60
2022/05/15 02:06:38;;;;;;;5.27;4.77;;;;;;;12.75;77.19;98900.16;5016133;28;103138;-60
2022/05/15 02:09:09;;;;;;;4.93;4.43;;;;;;;12.50;78.87;98903.03;4995952;28;104267;-60
2022/05/15 02:11:38;;;;;;;3.90;3.60;;;;;;;13.18;75.24;98901.16;4999329;28;105205;-60
2022/05/15 02:14:07;;;;;;;4.60;4.20;;;;;;;13.41;73.24;98901.13;4995204;27;102976;-59
2022/05/15 02:16:37;;;;;;;4.57;4.18;;;;;;;13.30;74.16;98896.69;4994060;28;102863;-60
2022/05/15 02:19:07;;;;;;;2.83;2.63;;;;;;;13.59;72.60;98896.97;4996885;28;103253;-59
2022/05/15 02:21:35;;;;;;;3.95;3.55;;;;;;;13.65;72.03;98891.16;4996158;28;105250;-59
2022/05/15 02:24:04;;;;;;;4.93;4.53;;;;;;;13.09;75.79;98899.22;4994300;28;102748;-60
2022/05/15 02:26:35;;;;;;;4.95;4.35;;;;;;;12.62;77.72;98897.63;5007863;28;102907;-59
2022/05/15 02:29:04;;;;;;;4.28;3.88;;;;;;;13.11;75.81;98904.41;5012786;28;103404;-60
2022/05/15 02:31:32;;;;;;;4.20;3.80;;;;;;;13.37;73.97;98903.19;5013926;28;103502;-60
2022/05/15 02:34:00;;;;;;;4.72;4.05;;;;;;;13.40;72.98;98897.63;5017686;27;102800;-59
2022/05/15 02:36:30;;;;;;;5.07;4.00;;;;;;;13.06;75.25;98899.44;5013755;28;103936;-59
2022/05/15 02:38:58;;;;;;;4.60;4.20;;;;;;;13.27;73.89;98903.09;5020650;28;103259;-59
2022/05/15 02:41:27;;;;;;;4.53;4.13;;;;;;;13.23;74.40;98911.41;5023302;27;103066;-59
2022/05/15 02:43:57;;;;;;;3.67;3.37;;;;;;;13.43;73.28;98904.50;5006797;28;102978;-60
2022/05/15 02:46:26;;;;;;;3.80;3.50;;;;;;;13.47;72.96;98903.28;5022262;27;104413;-59
2022/05/15 02:51:40;;;;;;;6.80;5.03;;;;;;;12.37;78.45;98907.56;5002508;28;105110;-59
2022/05/15 02:54:08;;;;;;;4.50;4.10;;;;;;;12.80;76.91;98903.28;5013921;28;102719;-59
2022/05/15 02:56:39;;;;;;;4.22;3.70;;;;;;;13.17;74.76;98902.13;4996916;28;104345;-59
2022/05/15 02:59:09;;;;;;;4.88;4.10;;;;;;;13.28;74.03;98894.13;4996395;28;104291;-59
2022/05/15 03:01:37;;;;;;;4.90;4.40;;;;;;;12.94;75.62;98895.09;5003266;27;103344;-59
2022/05/15 03:04:06;;;;;;;5.80;5.30;;;;;;;12.02;79.18;98900.47;4998964;27;102729;-60
2022/05/15 03:06:35;;;;;;;5.47;4.97;;;;;;;12.15;80.23;98895.94;4995703;28;103214;-59
2022/05/15 03:09:03;;;;;;;5.10;4.30;;;;;;;12.64;77.67;98895.69;4997804;27;103585;-59
2022/05/15 03:11:32;;;;;;;4.82;4.22;;;;;;;12.65;77.67;98891.25;4995792;28;103276;-60
2022/05/15 03:13:59;;;;;;;4.27;3.87;;;;;;;12.83;75.66;98887.13;4996528;27;102822;-59
2022/05/15 03:16:29;;;;;;;6.47;5.32;;;;;;;12.43;77.07;98896.50;4998147;28;102836;-60
2022/05/15 03:18:58;;;;;;;5.10;4.60;;;;;;;12.53;77.42;98900.13;4997344;28;105167;-59
2022/05/15 03:21:31;;;;;;;3.95;3.65;;;;;;;12.85;75.82;98895.84;5012622;28;103242;-59
2022/05/15 03:24:04;;;;;;;4.20;3.83;;;;;;;12.87;75.97;98899.22;4998486;28;103011;-59
2022/05/15 03:26:34;;;;;;;4.65;4.20;;;;;;;12.77;76.02;98907.03;4999745;28;102744;-59
2022/05/15 03:29:04;;;;;;;4.70;4.30;;;;;;;12.58;76.87;98903.28;4998747;28;104967;-59
2022/05/15 03:31:35;;;;;;;7.30;5.53;;;;;;;11.73;80.63;98904.47;5013135;27;103909;-59
2022/05/15 03:34:04;;;;;;;5.85;5.07;;;;;;;11.80;80.91;98910.97;5000565;28;102748;-59
2022/05/15 03:36:33;;;;;;;6.07;5.47;;;;;;;11.52;81.76;98906.00;4997609;28;103513;-59
2022/05/15 03:39:04;;;;;;;5.43;4.93;;;;;;;11.88;80.88;98913.91;4994438;28;103221;-59
2022/05/15 03:41:32;;;;;;;5.40;4.60;;;;;;;12.18;79.07;98901.00;5012391;27;103578;-59
2022/05/15 03:44:00;;;;;;;5.30;4.67;;;;;;;12.32;78.07;98907.09;5015076;27;103119;-59
2022/05/15 03:46:28;;;;;;;4.65;3.92;;;;;;;12.59;77.06;98913.75;4996652;28;103046;-60
2022/05/15 03:48:59;;;;;;;6.00;4.50;;;;;;;12.64;76.49;98914.25;4997079;28;103238;-57
2022/05/15 03:51:27;;;;;;;4.60;4.20;;;;;;;12.63;76.62;98917.03;4995696;28;103205;-57
2022/05/15 03:53:57;;;;;;;4.93;4.53;;;;;;;12.61;76.75;98925.09;5015013;27;103110;-56
2022/05/15 03:59:08;;;;;;;4.13;3.83;;;;;;;12.73;75.73;98920.66;5011035;27;103288;-60
2022/05/15 04:01:36;;;;;;;4.47;4.07;;;;;;;12.83;75.44;98918.97;4997110;28;103427;-59
2022/05/15 04:04:06;;;;;;;4.65;4.00;;;;;;;12.87;75.66;98924.88;4995229;28;102734;-59
2022/05/15 04:06:34;;;;;;;4.60;4.20;;;;;;;12.72;75.50;98918.94;4998460;28;102817;-56
2022/05/15 04:09:03;;;;;;;4.70;4.25;;;;;;;12.20;77.55;98920.31;4998781;28;103093;-57
2022/05/15 04:11:32;;;;;;;5.18;4.03;;;;;;;12.07;79.42;98922.16;4996087;27;104830;-56
2022/05/15 04:14:00;;;;;;;4.30;3.90;;;;;;;12.29;78.52;98923.22;5011820;27;102775;-57
2022/05/15 04:16:31;;;;;;;4.17;3.50;;;;;;;12.71;76.62;98917.28;4999251;27;102724;-56
2022/05/15 04:18:59;;;;;;;4.32;3.92;;;;;;;12.59;76.25;98920.88;4996951;28;104186;-56
2022/05/15 04:21:36;;;;;;;4.73;3.50;;;;;;;12.90;75.01;98929.94;4998247;27;103462;-56
2022/05/15 04:24:06;;;;;;;5.53;3.85;;;;;;;12.87;75.08;98920.41;4999842;28;102834;-57
2022/05/15 04:26:35;;;;;;;4.27;3.83;;;;;;;12.84;75.25;98918.00;5003468;27;103712;-56
2022/05/15 04:29:04;;;;;;;5.00;4.05;;;;;;;12.55;76.76;98924.69;4995501;28;103240;-56
2022/05/15 04:31:33;;;;;;;3.38;3.08;;;;;;;12.93;74.98;98922.59;4995723;28;103214;-56
2022/05/15 04:34:02;;;;;;;2.70;2.50;;;;;;;13.25;73.31;98926.22;4997565;27;102807;-59
2022/05/15 04:36:34;;;;;;;2.57;2.37;;;;;;;13.45;71.85;98924.63;4994528;28;103612;-59
2022/05/15 04:39:03;;;;;;;2.87;2.63;;;;;;;13.56;71.87;98923.78;5011810;27;103413;-59
2022/05/15 04:41:31;;;;;;;4.93;3.92;;;;;;;13.10;74.80;98924.81;5010989;27;103179;-59
2022/05/15 04:43:59;;;;;;;4.23;3.83;;;;;;;13.10;75.37;98926.59;5011957;27;102764;-59
2022/05/15 04:46:29;;;;;;;3.97;3.57;;;;;;;13.36;73.67;98920.91;5015502;28;103226;-59
2022/05/15 04:48:57;;;;;;;2.83;2.63;;;;;;;13.59;72.66;98918.19;5012737;27;103351;-59
2022/05/15 04:51:26;;;;;;;3.30;2.90;;;;;;;13.75;71.98;98921.31;5010629;27;103460;-59
2022/05/15 04:53:57;;;;;;;5.78;3.75;;;;;;;13.75;72.09;98921.31;5012008;27;102743;-59
2022/05/15 04:56:26;;;;;;;3.93;3.53;;;;;;;13.75;72.83;98922.13;5013040;27;103001;-59
2022/05/15 04:58:53;;;;;;;3.45;3.15;;;;;;;13.91;72.32;98919.09;5012410;27;103380;-59
2022/05/15 05:01:25;;;;;;;3.65;3.35;;;;;;;14.02;72.00;98913.72;5012995;28;103180;-59
2022/05/15 05:03:54;;;;;;;3.70;3.40;;;;;;;14.10;72.32;98918.41;5010462;27;102765;-60
2022/05/15 05:06:23;;;;;;;4.70;4.20;;;;;;;13.87;74.25;98917.63;5011263;27;103470;-59
2022/05/15 05:08:52;;;;;;;4.85;4.25;;;;;;;13.66;75.65;98932.69;5013296;27;103984;-59
2022/05/15 05:11:21;;;;;;;5.40;4.60;;;;;;;13.29;77.59;98922.38;5009871;28;102984;-59
2022/05/15 05:13:50;;;;;;;5.53;4.70;;;;;;;12.92;80.38;98928.84;5006329;27;102736;-59
2022/05/15 05:16:19;;;;;;;5.73;4.63;;;;;;;12.82;80.67;98930.53;5009967;27;102731;-60
2022/05/15 05:18:47;;;;;;;4.75;4.25;;;;;;;13.14;80.11;98934.19;5008457;27;104124;-59
2022/05/15 05:21:15;;;;;;;4.95;4.45;;;;;;;12.79;81.01;98944.03;5012938;27;103223;-59
2022/05/15 05:23:43;;;;;;;4.88;4.15;;;;;;;12.78;81.12;98937.03;5014015;27;102704;-59
2022/05/15 05:26:10;;;;;;;5.15;4.40;;;;;;;13.00;80.03;98942.34;5011075;27;103683;-60
2022/05/15 05:28:40;;;;;;;5.53;4.60;;;;;;;12.82;80.46;98949.09;5011320;27;104100;-59
2022/05/15 05:31:08;;;;;;;4.43;4.00;;;;;;;13.14;80.37;98946.59;4991378;27;103503;-59
2022/05/15 05:33:36;;;;;;;5.60;3.95;;;;;;;13.17;78.72;98939.25;5009686;27;102699;-59
2022/05/15 05:36:05;;;;;;;4.10;3.40;;;;;;;13.99;76.29;98948.50;5016984;27;102885;-59
2022/05/15 05:38:34;;;;;;;3.00;2.70;;;;;;;14.55;73.41;98953.59;5018048;28;103300;-59
2022/05/15 05:41:02;;;;;;;3.60;3.30;;;;;;;14.85;72.59;98943.84;5018903;27;103305;-59
2022/05/15 05:43:30;;;;;;;3.90;3.33;;;;;;;15.07;71.54;98943.69;5017677;27;102967;-59
2022/05/15 05:46:00;;;;;;;3.75;3.17;;;;;;;15.34;70.75;98940.44;5001599;27;104003;-60
2022/05/15 05:48:29;;;;;;;5.10;3.60;;;;;;;15.40;70.85;98939.91;5009712;27;103248;-59
2022/05/15 05:50:57;;;;;;;5.57;3.67;;;;;;;15.41;71.39;98936.25;4992779;28;103231;-59
2022/05/15 05:53:25;;;;;;;7.47;4.43;;;;;;;15.30;74.79;98933.69;5011955;27;102976;-60
2022/05/15 05:55:56;;;;;;;4.60;4.00;;;;;;;15.54;73.68;98939.56;5013532;27;102668;-59
2022/05/15 05:58:24;;;;;;;4.73;4.20;;;;;;;15.38;71.68;98933.84;5010275;27;103259;-59
2022/05/15 06:00:52;;;;;;;3.80;3.40;;;;;;;15.53;72.22;98935.22;5010325;27;103179;-59
2022/05/15 06:06:06;;;;;;;4.13;3.30;;;;;;;16.03;69.66;98933.31;5013816;27;103235;-59
2022/05/15 06:08:34;;;;;;;4.35;3.95;;;;;;;15.53;69.72;98935.22;5008721;27;104034;-59
2022/05/15 06:11:02;;;;;;;3.87;3.50;;;;;;;15.85;69.75;98931.50;5011876;27;103554;-60
2022/05/15 06:13:30;;;;;;;3.20;2.80;;;;;;;16.40;67.54;98935.28;5011563;27;103306;-60
2022/05/15 06:15:58;;;;;;;4.00;3.00;;;;;;;16.39;65.37;98938.94;4998163;28;104317;-59
2022/05/15 06:18:28;;;;;;;5.70;3.10;;;;;;;16.44;63.52;98936.69;5011427;27;103817;-59
2022/05/15 06:20:56;;;;;;;5.15;3.22;;;;;;;16.30;64.43;98940.63;5011386;28;103012;-59
2022/05/15 06:23:24;;;;;;;4.63;3.20;;;;;;;16.11;63.56;98932.66;5011864;28;102907;-60
2022/05/15 06:25:52;;;;;;;4.88;2.90;;;;;;;16.18;64.77;98931.94;5019255;27;104070;-59
2022/05/15 06:28:20;;;;;;;4.15;3.20;;;;;;;15.77;67.05;98934.00;5016838;28;103311;-59
2022/05/15 06:30:48;;;;;;;4.28;3.25;;;;;;;16.10;64.39;98923.81;5016366;28;103317;-60
2022/05/15 06:33:16;;;;;;;3.03;2.75;;;;;;;16.86;63.85;98935.38;5002887;27;102719;-60
2022/05/15 06:35:45;;;;;;;4.03;3.15;;;;;;;17.05;63.86;98942.47;5019162;27;103967;-60
2022/05/15 06:38:13;;;;;;;4.90;3.67;;;;;;;16.80;64.27;98927.97;5019768;27;103271;-60
2022/05/15 06:40:41;;;;;;;4.93;3.30;;;;;;;16.99;63.14;98927.03;5005397;28;104139;-60
2022/05/15 06:43:10;;;;;;;4.32;3.33;;;;;;;16.26;64.75;98939.22;5017191;27;103761;-59
2022/05/15 06:45:38;;;;;;;4.27;3.20;;;;;;;16.83;64.71;98937.50;5019499;27;104257;-60
2022/05/15 06:48:06;;;;;;;4.40;3.65;;;;;;;16.84;65.18;98929.38;5018735;27;103277;-59
2022/05/15 06:50:35;;;;;;;4.00;2.83;;;;;;;17.45;63.69;98929.69;5016777;27;103191;-60
2022/05/15 06:53:04;;;;;;;4.40;2.80;;;;;;;17.76;63.19;98927.56;5017322;27;102662;-61
2022/05/15 06:55:32;;;;;;;3.10;2.70;;;;;;;18.14;61.63;98931.78;5016874;27;103097;-61
2022/05/15 06:58:05;;;;;;;3.70;3.03;;;;;;;17.80;60.68;98931.59;5012211;28;105047;-61
2022/05/15 07:00:34;;;;;;;2.95;2.45;;;;;;;18.27;60.91;98938.41;5019188;28;104371;-61
2022/05/15 07:03:03;;;;;;;4.78;3.25;;;;;;;17.79;60.97;98929.94;5020651;27;102583;-61
2022/05/15 07:05:31;;;;;;;2.97;2.30;;;;;;;18.22;59.68;98929.19;5019039;28;102739;-61
2022/05/15 07:07:59;;;;;;;4.60;2.88;;;;;;;17.90;60.35;98925.22;5019046;27;103263;-61
2022/05/15 07:10:28;;;;;;;4.03;2.65;;;;;;;18.64;59.72;98919.53;5009685;28;103750;-61
2022/05/15 07:12:56;;;;;;;2.20;2.00;;;;;;;19.03;58.67;98923.47;5016614;27;102721;-62
2022/05/15 07:15:24;;;;;;;2.28;2.08;;;;;;;19.45;56.96;98917.38;5020329;27;102718;-61
2022/05/15 07:17:52;;;;;;;2.88;2.55;;;;;;;18.99;57.59;98924.78;5019320;27;103278;-61
2022/05/15 07:20:20;;;;;;;2.60;2.20;;;;;;;19.78;55.96;98916.47;5020681;28;103215;-61
2022/05/15 07:22:48;;;;;;;2.83;2.23;;;;;;;20.13;54.82;98910.81;5023636;27;102639;-61
2022/05/15 07:25:16;;;;;;;3.43;2.13;;;;;;;20.33;54.44;98910.53;5022131;27;104468;-61
2022/05/15 07:27:46;;;;;;;3.72;2.40;;;;;;;20.42;54.96;98914.88;5022678;27;104529;-62
2022/05/15 07:30:14;;;;;;;4.37;2.47;;;;;;;20.10;53.24;98910.31;5022717;27;103487;-61
2022/05/15 07:32:44;;;;;;;4.07;2.47;;;;;;;19.89;53.41;98915.31;5010059;28;102940;-62
2022/05/15 07:35:14;;;;;;;3.03;1.63;;;;;;;21.04;52.07;98911.47;5023281;27;103019;-62
2022/05/15 07:37:42;;;;;;;3.17;2.22;;;;;;;21.49;52.08;98910.00;5015413;28;103299;-61
2022/05/15 07:40:12;;;;;;;3.80;2.42;;;;;;;21.68;50.98;98899.66;5022970;27;103235;-61
2022/05/15 07:42:43;;;;;;;3.10;1.98;;;;;;;22.23;50.88;98904.84;5020104;28;102662;-61
2022/05/15 07:45:14;;;;;;;4.13;2.40;;;;;;;22.25;49.66;98905.53;5023427;27;102890;-62
2022/05/15 07:47:42;;;;;;;3.50;2.30;;;;;;;20.29;51.52;98904.69;5023287;27;103969;-62
2022/05/15 07:50:11;;;;;;;2.72;2.03;;;;;;;21.32;51.28;98898.47;5007653;28;103344;-62
2022/05/15 07:52:40;;;;;;;3.67;2.25;;;;;;;22.04;49.13;98896.44;5017845;28;102642;-62
2022/05/15 07:55:12;;;;;;;2.90;2.10;;;;;;;22.11;48.71;98900.09;5022099;27;102935;-63
2022/05/15 07:57:40;;;;;;;3.63;2.33;;;;;;;21.69;50.32;98900.50;5023137;27;103954;-63
2022/05/15 08:00:11;;;;;;;3.95;2.20;;;;;;;23.02;48.96;98895.41;5021179;27;103260;-62
2022/05/15 08:02:41;;;;;;;4.22;2.00;;;;;;;23.58;46.53;98889.38;5022016;28;103871;-62
2022/05/15 08:08:02;;;;;;;3.22;1.90;;;;;;;24.03;45.54;98887.41;5021885;27;104003;-62
2022/05/15 08:10:32;;;;;;;3.78;2.00;;;;;;;23.40;45.85;98899.75;5019503;27;103076;-63
2022/05/15 08:13:00;;;;;;;4.03;2.07;;;;;;;23.92;44.90;98896.00;5021284;28;103842;-62
2022/05/15 08:15:29;;;;;;;3.25;2.20;;;;;;;23.29;44.86;98893.94;5022089;28;104066;-63
2022/05/15 08:23:33;;;;;;;3.20;1.60;;;;;;;24.95;43.14;98890.97;5022563;28;104053;-63
2022/05/15 08:23:46;;;;;;;2.60;1.80;;;;;;;23.89;44.74;98882.91;5008621;27;102736;-64
2022/05/15 08:26:15;;;;;;;3.88;2.20;;;;;;;22.78;46.02;98890.28;5022798;27;102979;-63
2022/05/15 08:28:43;;;;;;;3.50;2.10;;;;;;;23.69;46.03;98877.28;5017285;28;103257;-63
2022/05/15 08:31:13;;;;;;;4.88;2.25;;;;;;;22.76;46.37;98887.81;5005373;27;104252;-63
2022/05/15 08:33:43;;;;;;;3.80;1.92;;;;;;;24.75;45.87;98883.53;5019753;28;102731;-62
2022/05/15 08:36:11;;;;;;;3.08;2.22;;;;;;;25.86;42.75;98874.38;5022365;27;103210;-63
2022/05/15 08:38:40;;;;;;;4.30;2.35;;;;;;;25.80;43.41;98881.44;5010895;28;104211;-63
2022/05/15 08:41:17;;;;;;;2.97;2.00;;;;;;;25.85;41.48;98872.75;5020741;27;103417;-63
2022/05/15 08:43:49;;;;;;;5.15;2.17;;;;;;;25.58;43.56;98871.81;5008203;28;102800;-63
2022/05/15 08:46:33;;;;;;;4.50;2.40;;;;;;;26.65;45.34;98872.66;5011706;28;103059;-63
2022/05/15 08:49:11;;;;;;;3.17;2.08;;;;;;;26.76;41.69;98872.03;5019800;27;104892;-63
2022/05/15 08:51:48;;;;;;;3.77;2.10;;;;;;;25.34;43.10;98880.41;5019039;28;103172;-63
2022/05/15 08:54:16;;;;;;;2.92;1.80;;;;;;;27.13;42.32;98872.41;5020815;27;102594;-63
2022/05/15 08:56:49;;;;;;;4.28;2.08;;;;;;;26.61;40.33;98876.81;5021797;27;102759;-63
2022/05/15 08:59:23;;;;;;;3.78;1.83;;;;;;;26.38;41.61;98873.69;5021750;27;103322;-63
2022/05/15 09:01:54;;;;;;;3.58;2.03;;;;;;;26.58;42.67;98869.13;5020138;27;103201;-63
2022/05/15 09:04:25;;;;;;;3.17;2.17;;;;;;;27.79;42.70;98863.00;5018781;27;102844;-63
2022/05/15 09:07:12;;;;;;;6.20;2.10;;;;;;;26.08;42.80;98872.38;5013678;28;102683;-63
2022/05/15 09:09:53;;;;;;;4.07;1.83;;;;;;;25.62;43.50;98864.97;5021305;27;103261;-63
2022/05/15 09:12:23;;;;;;;3.15;1.90;;;;;;;26.11;41.95;98867.38;5017877;28;103197;-63
2022/05/15 09:15:00;;;;;;;4.53;2.00;;;;;;;25.33;45.15;98863.34;5006503;27;102749;-63
2022/05/15 09:17:36;;;;;;;4.38;2.00;;;;;;;24.66;44.38;98865.81;5021514;27;104057;-63
2022/05/15 09:20:09;;;;;;;3.90;1.90;;;;;;;25.38;43.27;98868.97;5021980;27;104017;-63
2022/05/15 09:22:47;;;;;;;2.25;1.52;;;;;;;27.70;41.19;98864.31;5020198;28;103243;-63
2022/05/15 09:25:20;;;;;;;2.08;1.70;;;;;;;28.83;41.11;98860.63;5019800;27;102593;-63
2022/05/15 09:28:00;;;;;;;3.22;1.80;;;;;;;28.92;37.29;98864.72;5021954;27;104066;-63
2022/05/15 09:30:37;;;;;;;3.38;1.90;;;;;;;28.80;40.47;98857.53;5021741;27;103501;-63
2022/05/15 09:33:06;;;;;;;5.07;2.22;;;;;;;27.45;39.41;98849.81;5020370;28;103221;-63
2022/05/15 09:35:39;;;;;;;4.30;2.17;;;;;;;27.77;39.32;98847.97;5022320;28;102611;-63
2022/05/15 09:43:53;;;;;;;4.07;2.15;;;;;;;27.33;38.82;98846.06;5002043;28;103018;-63
2022/05/15 09:46:23;;;;;;;3.40;2.00;;;;;;;26.20;38.62;98849.09;5021393;27;102787;-63
2022/05/15 09:48:57;;;;;;;3.67;2.08;;;;;;;27.17;38.82;98846.53;5021101;27;102597;-63
2022/05/15 09:51:37;;;;;;;2.65;1.75;;;;;;;26.78;38.25;98847.44;5012396;28;104356;-63
2022/05/15 09:54:05;;;;;;;3.92;1.85;;;;;;;26.74;38.92;98838.03;5004983;28;103081;-64
2022/05/15 09:56:35;;;;;;;4.60;2.17;;;;;;;27.94;36.48;98833.69;5021174;27;102573;-63
2022/05/15 09:59:11;;;;;;;3.55;1.95;;;;;;;29.22;36.60;98838.50;5020585;27;102840;-63
2022/05/15 10:01:50;;;;;;;3.17;2.33;;;;;;;29.75;32.68;98837.84;5020142;28;103401;-63
2022/05/15 10:04:24;;;;;;;3.95;2.60;;;;;;;29.65;34.45;98826.66;5013993;28;103136;-63
2022/05/15 10:06:56;;;;;;;3.63;2.10;;;;;;;29.85;32.81;98822.66;5008294;27;102872;-63
2022/05/15 10:09:28;;;;;;;2.92;1.52;;;;;;;29.80;32.09;98827.13;5012048;28;104373;-63
2022/05/15 10:12:00;;;;;;;2.70;1.90;;;;;;;30.31;32.58;98819.22;5019268;27;103228;-63
2022/05/15 10:14:35;;;;;;;2.33;1.80;;;;;;;30.32;33.43;98820.03;5020070;27;103159;-63
2022/05/15 10:17:03;;;;;;;4.35;1.60;;;;;;;30.03;35.04;98813.59;5021543;28;102826;-63
2022/05/15 10:19:39;;;;;;;2.37;1.40;;;;;;;30.55;33.01;98819.28;5011730;27;104104;-63
2022/05/15 10:22:28;;;;;;;3.23;1.57;;;;;;;29.75;36.09;98810.63;5018746;27;103280;-64
2022/05/15 10:25:20;;;;;;;4.55;1.70;;;;;;;28.72;35.02;98815.16;5019553;27;103210;-63
2022/05/15 10:27:54;;;;;;;4.10;1.77;;;;;;;29.03;34.53;98812.31;5022009;27;102762;-63
2022/05/15 10:30:27;;;;;;;3.28;1.58;;;;;;;28.21;36.51;98800.97;5020943;27;104092;-63
2022/05/15 10:32:58;;;;;;;2.58;1.40;;;;;;;28.37;34.85;98797.69;5012633;28;104010;-63
2022/05/15 10:35:36;;;;;;;3.20;1.57;;;;;;;29.36;34.92;98794.81;5015213;28;103271;-63
2022/05/15 10:38:18;;;;;;;3.95;1.83;;;;;;;30.15;33.88;98784.47;5014025;28;102764;-63
2022/05/15 10:40:49;;;;;;;2.45;1.48;;;;;;;29.79;32.96;98785.41;5011856;28;104317;-63
2022/05/15 10:43:33;;;;;;;3.75;1.80;;;;;;;28.12;34.26;98784.94;5016820;28;103291;-63
2022/05/15 10:46:13;;;;;;;2.37;1.70;;;;;;;29.35;34.43;98787.72;5018329;28;103313;-64
2022/05/15 10:48:49;;;;;;;4.00;1.85;;;;;;;30.69;32.26;98779.81;5021205;27;102930;-63
2022/05/15 10:51:22;;;;;;;2.50;1.63;;;;;;;29.37;32.88;98782.84;5012285;28;102781;-64
2022/05/15 10:57:29;;;;;;;;;;;;;;;29.35;32.13;98772.22;5007014;28;103185;-64
2022/05/15 11:00:17;;;;;;;;;;;;;;;28.95;34.56;98771.00;5025412;28;103869;-64
2022/05/15 11:03:01;;;;;;;;;;;;;;;30.03;34.16;98769.19;5012766;28;104262;-64
2022/05/15 11:05:30;;;;;;;;;;;;;;;29.88;34.31;98761.44;5021776;27;103233;-64
2022/05/15 11:08:06;;;;;;;;;;;;;;;29.25;35.37;98761.03;5024319;27;103125;-64
2022/05/15 11:10:36;;;;;;;;;;;;;;;29.19;33.20;98757.31;5025531;28;102573;-63
2022/05/15 11:13:11;;;;;;;;;;;;;;;28.42;35.18;98760.66;5023513;27;102691;-64
2022/05/15 11:15:47;;;;;;;;;;;;;;;27.99;34.32;98757.00;5016924;28;103938;-64
2022/05/15 11:18:26;;;;;;;;;;;;;;;29.08;36.54;98755.34;5024212;27;102971;-64
2022/05/15 11:20:56;;;;;;;;;;;;;;;28.88;35.40;98743.91;5023430;27;102573;-64
2022/05/15 11:23:29;;;;;;;;;;;;;;;29.26;35.09;98738.22;5009831;28;102779;-64
2022/05/15 11:26:01;;;;;;;;;;;;;;;29.47;34.67;98731.47;5025680;27;104073;-64
2022/05/15 11:28:32;;;;;;;;;;;;;;;29.87;34.07;98743.44;5003686;28;103150;-64
2022/05/15 11:31:04;;;;;;;;;;;;;;;28.94;34.28;98732.09;5024872;27;102698;-64
2022/05/15 11:33:34;;;;;;;;;;;;;;;28.22;35.11;98732.00;5024563;27;102830;-64
2022/05/15 11:36:10;;;;;;;;;;;;;;;28.02;35.54;98732.97;5022585;27;104036;-64
2022/05/15 11:38:48;;;;;;;4.03;1.42;;;;;;;28.61;35.14;98720.72;5011033;28;103156;-63
2022/05/15 11:42:09;;;;;;;6.00;1.80;;;;;;;27.53;35.18;98727.50;5023146;27;102724;-64
2022/05/15 11:44:41;;;;;;;3.63;1.87;;;;;;;28.28;35.05;98725.66;5023353;28;103932;-64
2022/05/15 11:47:31;;;;;;;2.73;1.70;;;;;;;28.74;33.33;98726.06;5024005;27;103299;-64
2022/05/15 11:50:14;;;;;;;2.60;1.60;;;;;;;30.06;32.84;98720.53;5021516;27;103360;-63
2022/05/15 11:53:03;;;;;;;4.25;1.90;;;;;;;28.16;34.79;98715.53;5010237;28;103123;-64
2022/05/15 11:55:46;;;;;;;3.22;1.55;;;;;;;29.73;32.55;98706.56;5021269;27;104224;-63
2022/05/15 11:58:26;;;;;;;3.30;1.60;;;;;;;29.88;33.36;98713.25;5008263;28;103313;-64
2022/05/15 12:01:07;;;;;;;2.58;1.77;;;;;;;30.10;34.11;98704.53;5021657;27;103396;-64
2022/05/15 12:03:53;;;;;;;4.35;1.77;;;;;;;29.25;33.14;98707.47;5014350;28;102976;-64
2022/05/15 12:06:25;;;;;;;2.63;1.80;;;;;;;29.83;35.26;98696.81;5012264;27;103950;-64
2022/05/15 12:09:32;;;;;;;2.40;1.70;;;;;;;31.29;32.78;98693.00;5022666;27;103303;-64
2022/05/15 12:12:37;;;;;;;2.80;1.63;;;;;;;29.81;34.39;98695.38;5019759;28;103171;-64